createdAt,value
2018-08-27T00:01:05.507Z,60.20
2018-08-27T00:03:33.918Z,59.50
2018-08-27T00:06:02.356Z,60.30
2018-08-27T00:08:30.799Z,59.90
2018-08-27T00:10:59.209Z,60.00
2018-08-27T00:13:27.632Z,59.70
2018-08-27T00:15:56.062Z,59.50
2018-08-27T00:18:24.500Z,59.90
2018-08-27T00:20:52.917Z,60.40
2018-08-27T00:23:21.461Z,59.80
2018-08-27T00:25:49.875Z,59.90
2018-08-27T00:28:18.322Z,60.20
2018-08-27T00:30:46.750Z,59.90
2018-08-27T00:33:15.201Z,59.60
2018-08-27T00:35:43.631Z,59.90
2018-08-27T00:38:12.093Z,59.70
2018-08-27T00:40:40.521Z,60.10
2018-08-27T00:43:09.023Z,59.70
2018-08-27T00:45:37.492Z,59.80
2018-08-27T00:48:05.909Z,60.10
2018-08-27T00:50:34.370Z,59.90
2018-08-27T00:53:02.789Z,59.70
2018-08-27T00:55:31.269Z,59.70
2018-08-27T00:57:59.693Z,59.20
2018-08-27T01:00:28.169Z,59.10
2018-08-27T01:02:56.574Z,59.70
2018-08-27T01:05:25.010Z,59.40
2018-08-27T01:07:53.443Z,59.40
2018-08-27T01:10:21.912Z,59.90
2018-08-27T01:12:50.361Z,60.30
2018-08-27T01:15:21.333Z,60.70
2018-08-27T01:17:49.756Z,60.10
2018-08-27T01:20:18.197Z,60.50
2018-08-27T01:22:46.658Z,60.60
2018-08-27T01:25:15.105Z,60.20
2018-08-27T01:27:43.683Z,60.30
2018-08-27T01:30:12.229Z,61.50
2018-08-27T01:32:40.735Z,61.00
2018-08-27T01:35:09.217Z,61.10
2018-08-27T01:37:37.716Z,60.90
2018-08-27T01:40:06.241Z,61.50
2018-08-27T01:42:34.727Z,61.40
2018-08-27T01:45:03.216Z,61.50
2018-08-27T01:47:31.733Z,61.40
2018-08-27T01:50:00.256Z,61.50
2018-08-27T01:52:28.763Z,61.40
2018-08-27T01:54:57.245Z,62.00
2018-08-27T01:57:25.705Z,61.50
2018-08-27T01:59:54.157Z,62.00
2018-08-27T02:02:22.630Z,61.50
2018-08-27T02:04:51.144Z,61.50
2018-08-27T02:07:19.608Z,61.50
2018-08-27T02:09:48.038Z,60.80
2018-08-27T02:12:16.487Z,60.40
2018-08-27T02:14:44.922Z,60.80
2018-08-27T02:17:13.409Z,60.30
2018-08-27T02:19:41.902Z,59.70
2018-08-27T02:22:10.377Z,60.00
2018-08-27T02:24:38.849Z,60.50
2018-08-27T02:27:07.333Z,60.10
2018-08-27T02:29:35.762Z,60.30
2018-08-27T02:32:04.241Z,60.50
2018-08-27T02:34:32.745Z,60.50
2018-08-27T02:37:01.251Z,60.60
2018-08-27T02:39:29.782Z,61.10
2018-08-27T02:41:58.283Z,61.40
2018-08-27T02:44:26.813Z,61.00
2018-08-27T02:46:55.313Z,60.50
2018-08-27T02:49:23.818Z,60.50
2018-08-27T02:51:52.314Z,59.80
2018-08-27T02:54:20.778Z,59.90
2018-08-27T02:56:49.306Z,59.50
2018-08-27T02:59:17.823Z,58.60
2018-08-27T03:01:46.322Z,58.90
2018-08-27T03:04:14.817Z,58.70
2018-08-27T03:06:43.333Z,58.60
2018-08-27T03:09:11.834Z,57.70
2018-08-27T03:11:40.360Z,57.30
2018-08-27T03:14:08.863Z,57.60
2018-08-27T03:16:37.390Z,57.60
2018-08-27T03:19:05.934Z,57.70
2018-08-27T03:21:34.446Z,57.00
2018-08-27T03:24:02.945Z,57.30
2018-08-27T03:26:31.445Z,57.20
2018-08-27T03:28:59.953Z,56.90
2018-08-27T03:31:28.451Z,57.10
2018-08-27T03:33:56.885Z,57.60
2018-08-27T03:36:25.438Z,58.20
2018-08-27T03:38:53.895Z,57.30
2018-08-27T03:41:22.368Z,57.80
2018-08-27T03:43:50.837Z,57.60
2018-08-27T03:46:19.273Z,57.80
2018-08-27T03:48:47.734Z,58.30
2018-08-27T03:51:16.237Z,58.40
2018-08-27T03:53:44.677Z,57.90
2018-08-27T03:56:13.093Z,57.70
2018-08-27T03:58:41.522Z,57.10
2018-08-27T04:01:09.928Z,57.10
2018-08-27T04:03:38.350Z,57.00
2018-08-27T04:06:06.791Z,56.70
2018-08-27T04:08:35.267Z,57.30
2018-08-27T04:11:03.678Z,57.20
2018-08-27T04:13:32.148Z,56.40
2018-08-27T04:16:00.555Z,56.90
2018-08-27T04:18:29.015Z,56.80
2018-08-27T04:20:57.470Z,56.10
2018-08-27T04:23:26.124Z,56.50
2018-08-27T04:25:54.527Z,56.30
2018-08-27T04:28:22.946Z,56.70
2018-08-27T04:30:51.409Z,56.40
2018-08-27T04:33:19.925Z,57.00
2018-08-27T04:35:48.410Z,56.80
2018-08-27T04:38:16.959Z,57.00
2018-08-27T04:40:45.464Z,57.10
2018-08-27T04:43:13.968Z,56.80
2018-08-27T04:45:42.747Z,56.70
2018-08-27T04:48:11.348Z,55.90
2018-08-27T04:50:39.849Z,55.70
2018-08-27T04:53:08.346Z,55.40
2018-08-27T04:55:36.888Z,55.30
2018-08-27T04:58:05.509Z,55.30
2018-08-27T05:00:41.009Z,55.20
2018-08-27T05:03:10.327Z,56.00
2018-08-27T05:05:38.829Z,55.50
2018-08-27T05:08:07.513Z,55.80
2018-08-27T05:10:36.114Z,55.40
2018-08-27T05:13:04.690Z,55.60
2018-08-27T05:15:33.288Z,55.50
2018-08-27T05:18:01.755Z,55.80
2018-08-27T05:20:30.292Z,55.30
2018-08-27T05:22:58.754Z,55.20
2018-08-27T05:25:27.244Z,54.90
2018-08-27T05:27:55.721Z,55.40
2018-08-27T05:30:24.219Z,54.40
2018-08-27T05:32:52.643Z,54.50
2018-08-27T05:35:21.090Z,54.50
2018-08-27T05:37:49.511Z,54.60
2018-08-27T05:40:17.940Z,54.40
2018-08-27T05:42:46.338Z,54.50
2018-08-27T05:45:14.844Z,54.50
2018-08-27T05:47:43.391Z,54.50
2018-08-27T05:50:11.771Z,54.60
2018-08-27T05:52:40.181Z,54.50
2018-08-27T05:55:08.642Z,55.20
2018-08-27T05:57:37.069Z,54.60
2018-08-27T06:00:05.602Z,54.70
2018-08-27T06:02:34.005Z,54.60
2018-08-27T06:05:02.451Z,54.70
2018-08-27T06:07:30.846Z,54.70
2018-08-27T06:09:59.301Z,54.70
2018-08-27T06:12:27.726Z,54.60
2018-08-27T06:14:56.157Z,54.80
2018-08-27T06:17:24.572Z,54.90
2018-08-27T06:19:53.045Z,55.00
2018-08-27T06:22:21.512Z,54.30
2018-08-27T06:24:49.945Z,54.00
2018-08-27T06:27:18.375Z,53.50
2018-08-27T06:29:46.816Z,53.40
2018-08-27T06:32:15.251Z,53.30
2018-08-27T06:34:43.775Z,53.50
2018-08-27T06:37:12.264Z,53.30
2018-08-27T06:39:40.849Z,53.40
2018-08-27T06:42:09.329Z,53.10
2018-08-27T06:44:37.886Z,53.00
2018-08-27T06:47:06.497Z,52.70
2018-08-27T06:49:35.006Z,52.50
2018-08-27T06:52:03.493Z,51.90
2018-08-27T06:54:32.013Z,51.20
2018-08-27T06:57:00.478Z,50.80
2018-08-27T06:59:29.360Z,50.40
2018-08-27T07:01:57.849Z,49.80
2018-08-27T07:04:26.321Z,49.50
2018-08-27T07:06:54.813Z,49.80
2018-08-27T07:09:23.280Z,49.10
2018-08-27T07:11:51.813Z,49.70
2018-08-27T07:14:20.329Z,48.70
2018-08-27T07:16:48.841Z,48.90
2018-08-27T07:19:17.314Z,48.10
2018-08-27T07:21:45.801Z,48.00
2018-08-27T07:24:14.267Z,47.50
2018-08-27T07:26:42.770Z,46.80
2018-08-27T07:29:11.270Z,46.30
2018-08-27T07:31:39.793Z,46.50
2018-08-27T07:34:08.242Z,46.30
2018-08-27T07:36:36.696Z,46.80
2018-08-27T07:39:07.361Z,46.10
2018-08-27T07:41:35.793Z,46.40
2018-08-27T07:44:04.217Z,46.20
2018-08-27T07:46:32.653Z,45.80
2018-08-27T07:49:01.416Z,45.80
2018-08-27T07:51:29.849Z,46.00
2018-08-27T07:53:58.298Z,45.40
2018-08-27T07:56:26.742Z,45.40
2018-08-27T07:58:55.183Z,45.80
2018-08-27T08:01:23.663Z,45.50
2018-08-27T08:03:52.125Z,45.80
2018-08-27T08:06:20.583Z,45.70
2018-08-27T08:08:49.022Z,45.90
2018-08-27T08:11:17.535Z,45.70
2018-08-27T08:13:46.062Z,45.70
2018-08-27T08:16:14.493Z,45.90
2018-08-27T08:18:42.955Z,44.70
2018-08-27T08:21:11.458Z,45.50
2018-08-27T08:23:39.955Z,46.10
2018-08-27T08:26:08.469Z,46.20
2018-08-27T08:28:36.911Z,46.40
2018-08-27T08:31:05.378Z,46.80
2018-08-27T08:33:33.845Z,48.50
2018-08-27T08:36:02.278Z,48.30
2018-08-27T08:38:30.727Z,46.70
2018-08-27T08:40:59.268Z,47.30
2018-08-27T08:43:27.705Z,47.00
2018-08-27T08:45:56.210Z,47.30
2018-08-27T08:48:24.639Z,45.70
2018-08-27T08:50:53.127Z,46.20
2018-08-27T08:53:21.577Z,45.80
2018-08-27T08:55:50.109Z,46.70
2018-08-27T08:58:18.625Z,46.90
2018-08-27T09:00:47.126Z,47.70
2018-08-27T09:03:15.625Z,47.70
2018-08-27T09:05:44.152Z,47.90
2018-08-27T09:08:12.650Z,48.10
2018-08-27T09:10:41.186Z,48.00
2018-08-27T09:13:09.662Z,47.20
2018-08-27T09:15:38.166Z,47.00
2018-08-27T09:18:06.678Z,46.90
2018-08-27T09:20:35.195Z,46.90
2018-08-27T09:23:03.754Z,46.90
2018-08-27T09:25:32.220Z,47.20
2018-08-27T09:28:00.739Z,47.40
2018-08-27T09:30:29.292Z,49.50
2018-08-27T09:32:57.872Z,52.30
2018-08-27T09:35:26.377Z,53.40
2018-08-27T09:37:54.912Z,54.20
2018-08-27T09:40:23.439Z,55.10
2018-08-27T09:42:52.004Z,55.80
2018-08-27T09:45:20.499Z,56.20
2018-08-27T09:47:49.002Z,56.80
2018-08-27T09:50:17.526Z,56.80
2018-08-27T09:52:46.118Z,56.90
2018-08-27T09:55:14.646Z,56.50
2018-08-27T09:57:43.128Z,57.20
2018-08-27T10:00:11.671Z,56.50
2018-08-27T10:02:40.130Z,56.10
2018-08-27T10:05:08.586Z,56.30
2018-08-27T10:07:37.055Z,56.20
2018-08-27T10:10:05.563Z,55.40
2018-08-27T10:12:34.007Z,54.60
2018-08-27T10:15:02.551Z,54.10
2018-08-27T10:17:30.961Z,52.70
2018-08-27T10:19:59.391Z,51.60
2018-08-27T10:22:27.856Z,51.30
2018-08-27T10:24:56.298Z,51.00
2018-08-27T10:27:24.754Z,50.20
2018-08-27T10:29:53.283Z,50.00
2018-08-27T10:32:21.831Z,49.00
2018-08-27T10:34:50.278Z,47.30
2018-08-27T10:37:18.893Z,48.20
2018-08-27T10:39:47.348Z,47.50
2018-08-27T10:42:15.842Z,47.50
2018-08-27T10:44:44.403Z,46.90
2018-08-27T10:47:12.857Z,46.10
2018-08-27T10:49:41.364Z,45.10
2018-08-27T10:52:09.835Z,46.00
2018-08-27T10:54:38.431Z,46.90
2018-08-27T10:57:07.208Z,47.60
2018-08-27T10:59:36.549Z,47.90
2018-08-27T11:02:05.049Z,49.50
2018-08-27T11:04:33.791Z,49.90
2018-08-27T11:07:02.290Z,51.80
2018-08-27T11:09:30.842Z,52.00
2018-08-27T11:11:59.352Z,51.50
2018-08-27T11:14:27.879Z,51.10
2018-08-27T11:16:56.379Z,51.60
2018-08-27T11:19:24.935Z,51.40
2018-08-27T11:21:53.444Z,51.90
2018-08-27T11:24:22.725Z,52.70
2018-08-27T11:26:51.293Z,51.70
2018-08-27T11:29:20.529Z,51.30
2018-08-27T11:31:49.285Z,51.00
2018-08-27T11:34:17.815Z,52.50
2018-08-27T11:36:46.349Z,53.40
2018-08-27T11:39:15.985Z,52.90
2018-08-27T11:41:44.994Z,53.90
2018-08-27T11:44:13.494Z,54.50
2018-08-27T11:46:42.102Z,53.30
2018-08-27T11:49:10.592Z,53.60
2018-08-27T11:51:39.129Z,53.80
2018-08-27T11:54:07.650Z,54.20
2018-08-27T11:56:36.193Z,54.70
2018-08-27T11:59:04.717Z,54.20
2018-08-27T12:01:33.264Z,54.40
2018-08-27T12:04:01.797Z,53.70
2018-08-27T12:06:30.345Z,53.60
2018-08-27T12:08:58.929Z,55.00
2018-08-27T12:11:27.453Z,54.70
2018-08-27T12:13:55.982Z,57.00
2018-08-27T12:16:24.527Z,61.10
2018-08-27T12:18:53.005Z,60.20
2018-08-27T12:21:21.543Z,61.10
2018-08-27T12:23:50.146Z,61.90
2018-08-27T12:26:18.650Z,60.40
2018-08-27T12:28:47.141Z,60.40
2018-08-27T12:31:15.655Z,59.80
2018-08-27T12:33:44.176Z,59.50
2018-08-27T12:36:12.690Z,59.90
2018-08-27T12:38:41.555Z,60.60
2018-08-27T12:41:10.213Z,61.10
2018-08-27T12:43:38.788Z,60.50
2018-08-27T12:46:07.242Z,60.60
2018-08-27T12:48:35.725Z,60.60
2018-08-27T12:51:04.263Z,59.90
2018-08-27T12:53:32.750Z,59.20
2018-08-27T12:56:01.249Z,59.40
2018-08-27T12:58:29.785Z,59.70
2018-08-27T13:00:58.347Z,59.40
2018-08-27T13:03:26.821Z,59.80
2018-08-27T13:05:55.325Z,58.70
2018-08-27T13:08:23.793Z,58.80
2018-08-27T13:10:52.298Z,57.90
2018-08-27T13:13:20.905Z,57.40
2018-08-27T13:15:49.453Z,57.10
2018-08-27T13:18:17.943Z,56.60
2018-08-27T13:20:46.470Z,57.10
2018-08-27T13:23:14.969Z,56.60
2018-08-27T13:25:43.513Z,56.10
2018-08-27T13:28:12.092Z,56.20
2018-08-27T13:30:40.654Z,56.50
2018-08-27T13:33:09.135Z,56.60
2018-08-27T13:35:37.566Z,56.90
2018-08-27T13:38:06.223Z,56.90
2018-08-27T13:40:34.752Z,57.30
2018-08-27T13:43:03.163Z,57.60
2018-08-27T13:45:31.605Z,57.50
2018-08-27T13:48:00.088Z,58.00
2018-08-27T13:50:28.531Z,57.60
2018-08-27T13:52:57.000Z,58.00
2018-08-27T13:55:25.451Z,57.50
2018-08-27T13:57:53.927Z,57.40
2018-08-27T14:00:23.623Z,57.50
2018-08-27T14:02:53.042Z,57.60
2018-08-27T14:05:21.687Z,58.20
2018-08-27T14:07:50.291Z,58.50
2018-08-27T14:10:18.758Z,57.40
2018-08-27T14:12:47.220Z,57.60
2018-08-27T14:15:15.790Z,57.00
2018-08-27T14:17:44.145Z,57.10
2018-08-27T14:20:12.813Z,56.80
2018-08-27T14:22:41.151Z,57.10
2018-08-27T14:25:09.611Z,57.40
2018-08-27T14:27:38.165Z,56.50
2018-08-27T14:30:07.187Z,56.60
2018-08-27T14:32:35.841Z,56.80
2018-08-27T14:35:04.353Z,56.90
2018-08-27T14:37:32.913Z,56.20
2018-08-27T14:40:01.449Z,56.60
2018-08-27T14:42:29.985Z,55.90
2018-08-27T14:44:58.513Z,55.80
2018-08-27T14:47:27.037Z,56.00
2018-08-27T14:49:55.546Z,55.40
2018-08-27T14:52:24.031Z,55.20
2018-08-27T14:54:52.545Z,55.00
2018-08-27T14:57:21.051Z,54.00
2018-08-27T14:59:49.577Z,54.00
2018-08-27T15:02:18.083Z,54.30
2018-08-27T15:04:46.661Z,53.30
2018-08-27T15:07:15.230Z,52.60
2018-08-27T15:09:43.763Z,53.20
2018-08-27T15:12:12.262Z,53.40
2018-08-27T15:14:40.777Z,53.90
2018-08-27T15:17:09.364Z,53.70
2018-08-27T15:19:37.853Z,53.30
2018-08-27T15:22:06.468Z,53.70
2018-08-27T15:24:34.976Z,53.70
2018-08-27T15:27:03.473Z,53.60
2018-08-27T15:29:32.005Z,53.70
2018-08-27T15:32:00.474Z,53.70
2018-08-27T15:34:28.955Z,53.90
2018-08-27T15:36:57.407Z,53.70
2018-08-27T15:39:25.857Z,53.60
2018-08-27T15:41:54.293Z,53.20
2018-08-27T15:44:22.737Z,53.20
2018-08-27T15:46:51.190Z,53.80
2018-08-27T15:49:19.643Z,54.00
2018-08-27T15:51:48.093Z,54.10
2018-08-27T15:54:16.542Z,53.50
2018-08-27T15:56:44.981Z,52.40
2018-08-27T15:59:13.423Z,52.00
2018-08-27T16:01:41.859Z,51.60
2018-08-27T16:04:10.362Z,51.20
2018-08-27T16:06:38.768Z,51.70
2018-08-27T16:09:07.221Z,51.90
2018-08-27T16:11:35.662Z,51.50
2018-08-27T16:14:04.149Z,51.70
2018-08-27T16:16:32.574Z,52.10
2018-08-27T16:19:01.005Z,52.40
2018-08-27T16:21:29.479Z,52.90
2018-08-27T16:23:57.983Z,53.30
2018-08-27T16:26:26.432Z,53.50
2018-08-27T16:28:54.862Z,53.40
2018-08-27T16:31:23.313Z,53.30
2018-08-27T16:33:51.830Z,53.40
2018-08-27T16:36:20.370Z,54.40
2018-08-27T16:38:48.857Z,54.10
2018-08-27T16:41:17.373Z,54.50
2018-08-27T16:43:45.857Z,54.60
2018-08-27T16:46:14.382Z,55.00
2018-08-27T16:48:42.854Z,54.90
2018-08-27T16:51:11.371Z,55.20
2018-08-27T16:53:39.863Z,55.40
2018-08-27T16:56:08.383Z,56.20
2018-08-27T16:58:36.870Z,57.30
2018-08-27T17:01:05.493Z,57.60
2018-08-27T17:03:33.990Z,58.40
2018-08-27T17:06:02.543Z,59.10
2018-08-27T17:08:31.070Z,59.90
2018-08-27T17:10:59.574Z,60.60
2018-08-27T17:13:28.099Z,60.60
2018-08-27T17:15:56.647Z,60.90
2018-08-27T17:18:25.208Z,61.20
2018-08-27T17:20:53.743Z,61.30
2018-08-27T17:23:22.269Z,61.30
2018-08-27T17:25:50.779Z,61.30
2018-08-27T17:28:19.269Z,60.60
2018-08-27T17:30:47.787Z,60.50
2018-08-27T17:33:16.394Z,60.50
2018-08-27T17:35:44.965Z,60.40
2018-08-27T17:38:13.619Z,60.40
2018-08-27T17:40:42.235Z,60.40
2018-08-27T17:43:10.750Z,60.30
2018-08-27T17:45:39.318Z,60.60
2018-08-27T17:48:07.860Z,61.00
2018-08-27T17:50:36.399Z,61.40
2018-08-27T17:53:04.967Z,61.80
2018-08-27T17:55:33.503Z,62.10
2018-08-27T17:58:02.059Z,62.30
2018-08-27T18:00:30.615Z,62.60
2018-08-27T18:02:59.334Z,62.90
2018-08-27T18:05:27.900Z,63.00
2018-08-27T18:07:56.440Z,63.80
2018-08-27T18:10:24.983Z,64.30
2018-08-27T18:12:53.514Z,64.50
2018-08-27T18:15:22.031Z,64.60
2018-08-27T18:17:50.599Z,64.90
2018-08-27T18:20:19.114Z,65.20
2018-08-27T18:22:47.664Z,65.50
2018-08-27T18:25:16.225Z,65.60
2018-08-27T18:27:44.767Z,65.90
2018-08-27T18:30:13.330Z,66.10
2018-08-27T18:32:41.831Z,66.10
2018-08-27T18:35:10.334Z,66.20
2018-08-27T18:37:38.816Z,66.30
2018-08-27T18:40:07.300Z,66.90
2018-08-27T18:42:35.780Z,67.30
2018-08-27T18:45:04.301Z,67.90
2018-08-27T18:47:32.853Z,68.20
2018-08-27T18:50:01.289Z,68.20
2018-08-27T18:52:29.743Z,68.10
2018-08-27T18:54:58.184Z,68.70
2018-08-27T18:57:26.671Z,69.20
2018-08-27T18:59:55.121Z,69.80
2018-08-27T19:02:23.585Z,70.40
2018-08-27T19:04:52.034Z,70.80
2018-08-27T19:07:20.522Z,71.10
2018-08-27T19:09:48.963Z,71.70
2018-08-27T19:12:17.463Z,72.80
2018-08-27T19:14:45.898Z,73.00
2018-08-27T19:17:14.331Z,73.90
2018-08-27T19:19:42.810Z,74.20
2018-08-27T19:22:11.274Z,74.50
2018-08-27T19:24:39.756Z,75.10
2018-08-27T19:27:08.220Z,75.70
2018-08-27T19:29:36.683Z,75.90
2018-08-27T19:32:05.478Z,75.90
2018-08-27T19:34:34.003Z,75.90
2018-08-27T19:37:02.551Z,76.20
2018-08-27T19:39:31.072Z,77.00
2018-08-27T19:41:59.451Z,77.40
2018-08-27T19:44:27.930Z,77.50
2018-08-27T19:46:56.377Z,77.80
2018-08-27T19:49:24.829Z,78.00
2018-08-27T19:51:54.198Z,78.20
2018-08-27T19:54:22.658Z,78.70
2018-08-27T19:56:51.104Z,79.20
2018-08-27T19:59:19.549Z,79.30
2018-08-27T20:01:47.999Z,79.10
2018-08-27T20:04:16.450Z,79.70
2018-08-27T20:06:44.928Z,80.50
2018-08-27T20:09:13.379Z,80.90
2018-08-27T20:11:41.823Z,80.50
2018-08-27T20:14:10.270Z,82.20
2018-08-27T20:16:38.785Z,81.80
2018-08-27T20:19:07.251Z,83.00
2018-08-27T20:21:35.698Z,83.00
2018-08-27T20:24:04.187Z,83.00
2018-08-27T20:26:32.639Z,83.00
2018-08-27T20:29:01.096Z,83.00
2018-08-27T20:31:29.535Z,83.00
2018-08-27T20:33:58.018Z,83.40
2018-08-27T20:36:26.464Z,84.60
2018-08-27T20:38:54.894Z,84.80
2018-08-27T20:41:23.366Z,85.40
2018-08-27T20:43:51.789Z,85.90
2018-08-27T20:46:20.411Z,86.30
2018-08-27T20:48:49.014Z,86.30
2018-08-27T20:51:17.470Z,87.10
2018-08-27T20:53:45.909Z,87.40
2018-08-27T20:56:14.359Z,88.20
2018-08-27T20:58:42.781Z,88.80
2018-08-27T21:01:11.251Z,87.90
2018-08-27T21:03:39.729Z,87.70
2018-08-27T21:06:08.206Z,89.40
2018-08-27T21:08:36.700Z,89.10
2018-08-27T21:11:05.202Z,88.90
2018-08-27T21:13:33.631Z,88.60
2018-08-27T21:16:02.076Z,87.80
2018-08-27T21:18:30.531Z,88.70
2018-08-27T21:20:59.018Z,88.70
2018-08-27T21:23:27.481Z,89.30
2018-08-27T21:25:55.921Z,89.70
2018-08-27T21:28:24.337Z,89.70
2018-08-27T21:30:52.776Z,88.40
2018-08-27T21:33:21.246Z,89.10
2018-08-27T21:35:49.725Z,89.50
2018-08-27T21:38:18.187Z,90.00
2018-08-27T21:40:46.628Z,90.00
2018-08-27T21:43:15.047Z,90.00
2018-08-27T21:45:43.474Z,90.20
2018-08-27T21:48:11.884Z,90.40
2018-08-27T21:50:40.367Z,90.40
2018-08-27T21:53:08.803Z,90.40
2018-08-27T21:55:37.257Z,90.60
2018-08-27T21:58:05.711Z,90.60
2018-08-27T22:00:38.353Z,90.80
2018-08-27T22:03:12.558Z,90.50
2018-08-27T22:05:41.083Z,90.50
2018-08-27T22:08:09.473Z,90.70
2018-08-27T22:10:37.886Z,90.40
2018-08-27T22:13:06.317Z,90.60
2018-08-27T22:15:34.709Z,90.70
2018-08-27T22:18:03.100Z,90.80
2018-08-27T22:20:31.505Z,89.90
2018-08-27T22:22:59.920Z,90.10
2018-08-27T22:25:28.311Z,90.00
2018-08-27T22:27:56.716Z,90.50
2018-08-27T22:30:25.090Z,90.00
2018-08-27T22:32:53.507Z,90.00
2018-08-27T22:35:21.898Z,90.00
2018-08-27T22:37:50.348Z,90.20
2018-08-27T22:40:18.745Z,90.50
2018-08-27T22:42:47.201Z,90.30
2018-08-27T22:45:15.631Z,90.40
2018-08-27T22:47:44.045Z,90.40
2018-08-27T22:50:12.455Z,90.60
2018-08-27T22:52:40.883Z,90.50
2018-08-27T22:55:09.285Z,90.50
2018-08-27T22:57:37.721Z,90.50
2018-08-27T23:00:06.153Z,90.40
2018-08-27T23:02:39.945Z,90.40
2018-08-27T23:05:11.995Z,90.70
2018-08-27T23:07:41.220Z,90.90
2018-08-27T23:10:10.055Z,91.20
2018-08-27T23:12:38.474Z,91.20
2018-08-27T23:15:06.937Z,91.00
2018-08-27T23:17:35.390Z,90.90
2018-08-27T23:20:03.861Z,91.00
2018-08-27T23:22:32.274Z,91.10
2018-08-27T23:25:00.666Z,91.10
2018-08-27T23:27:29.074Z,90.90
2018-08-27T23:29:57.448Z,91.10
2018-08-27T23:32:25.863Z,91.10
2018-08-27T23:34:54.269Z,91.10
2018-08-27T23:37:22.706Z,91.20
2018-08-27T23:39:51.226Z,91.10
2018-08-27T23:42:19.670Z,91.10
2018-08-27T23:44:48.122Z,91.20
2018-08-27T23:47:16.625Z,91.20
2018-08-27T23:49:45.142Z,91.30
2018-08-27T23:52:13.943Z,91.40
2018-08-27T23:54:42.451Z,91.50
2018-08-27T23:57:10.866Z,91.30
2018-08-27T23:59:39.294Z,91.40
